sensor_id;sensor_type;location;lat;lon;timestamp;pressure;altitude;pressure_sealevel;temperature
69590;BMP180;56792;50.644;17.984;2023-09-19T00:01:09;98966.40;;;18.70
69590;BMP180;56792;50.644;17.984;2023-09-19T00:03:40;98959.20;;;18.70
69590;BMP180;56792;50.644;17.984;2023-09-19T00:06:10;98964.20;;;18.70
69590;BMP180;56792;50.644;17.984;2023-09-19T00:08:38;98963.20;;;18.72
69590;BMP180;56792;50.644;17.984;2023-09-19T00:11:07;98965.40;;;18.72
69590;BMP180;56792;50.644;17.984;2023-09-19T00:13:36;98968.00;;;18.78
69590;BMP180;56792;50.644;17.984;2023-09-19T00:16:10;98965.80;;;18.78
69590;BMP180;56792;50.644;17.984;2023-09-19T00:18:39;98964.60;;;18.74
69590;BMP180;56792;50.644;17.984;2023-09-19T00:21:07;98957.80;;;18.70
69590;BMP180;56792;50.644;17.984;2023-09-19T00:23:35;98953.60;;;18.70
69590;BMP180;56792;50.644;17.984;2023-09-19T00:26:04;98949.80;;;18.70
69590;BMP180;56792;50.644;17.984;2023-09-19T00:28:32;98946.60;;;18.70
69590;BMP180;56792;50.644;17.984;2023-09-19T00:31:00;98937.60;;;18.70
69590;BMP180;56792;50.644;17.984;2023-09-19T00:33:30;98938.40;;;18.70
69590;BMP180;56792;50.644;17.984;2023-09-19T00:35:58;98939.60;;;18.70
69590;BMP180;56792;50.644;17.984;2023-09-19T00:38:27;98941.00;;;18.70
69590;BMP180;56792;50.644;17.984;2023-09-19T00:40:56;98937.80;;;18.68
69590;BMP180;56792;50.644;17.984;2023-09-19T00:43:25;98942.20;;;18.70
69590;BMP180;56792;50.644;17.984;2023-09-19T00:45:56;98947.00;;;18.60
69590;BMP180;56792;50.644;17.984;2023-09-19T00:48:26;98947.20;;;18.60
69590;BMP180;56792;50.644;17.984;2023-09-19T00:50:58;98945.60;;;18.60
69590;BMP180;56792;50.644;17.984;2023-09-19T00:53:27;98941.40;;;18.60
69590;BMP180;56792;50.644;17.984;2023-09-19T00:55:57;98937.00;;;18.60
69590;BMP180;56792;50.644;17.984;2023-09-19T00:58:25;98933.80;;;18.60
69590;BMP180;56792;50.644;17.984;2023-09-19T01:01:00;98933.20;;;18.58
69590;BMP180;56792;50.644;17.984;2023-09-19T01:03:29;98937.00;;;18.50
69590;BMP180;56792;50.644;17.984;2023-09-19T01:05:57;98939.80;;;18.60
69590;BMP180;56792;50.644;17.984;2023-09-19T01:08:28;98937.40;;;18.60
69590;BMP180;56792;50.644;17.984;2023-09-19T01:11:13;98935.40;;;18.60
69590;BMP180;56792;50.644;17.984;2023-09-19T01:14:01;98935.40;;;18.60
69590;BMP180;56792;50.644;17.984;2023-09-19T01:16:41;98935.40;;;18.60
69590;BMP180;56792;50.644;17.984;2023-09-19T01:19:45;98926.00;;;18.60
69590;BMP180;56792;50.644;17.984;2023-09-19T01:22:31;98927.40;;;18.60
69590;BMP180;56792;50.644;17.984;2023-09-19T01:25:42;98934.00;;;18.60
69590;BMP180;56792;50.644;17.984;2023-09-19T01:28:30;98930.60;;;18.60
69590;BMP180;56792;50.644;17.984;2023-09-19T01:31:11;98932.00;;;18.60
69590;BMP180;56792;50.644;17.984;2023-09-19T01:34:01;98931.00;;;18.60
69590;BMP180;56792;50.644;17.984;2023-09-19T01:36:33;98929.40;;;18.60
69590;BMP180;56792;50.644;17.984;2023-09-19T01:39:06;98926.20;;;18.60
69590;BMP180;56792;50.644;17.984;2023-09-19T01:41:58;98929.20;;;18.62
69590;BMP180;56792;50.644;17.984;2023-09-19T01:44:44;98929.80;;;18.60
69590;BMP180;56792;50.644;17.984;2023-09-19T01:47:28;98932.00;;;18.60
69590;BMP180;56792;50.644;17.984;2023-09-19T01:50:12;98930.20;;;18.62
69590;BMP180;56792;50.644;17.984;2023-09-19T01:52:48;98933.40;;;18.68
69590;BMP180;56792;50.644;17.984;2023-09-19T01:55:18;98928.60;;;18.70
69590;BMP180;56792;50.644;17.984;2023-09-19T01:58:00;98931.60;;;18.70
69590;BMP180;56792;50.644;17.984;2023-09-19T02:00:34;98936.20;;;18.70
69590;BMP180;56792;50.644;17.984;2023-09-19T02:03:05;98943.80;;;18.70
69590;BMP180;56792;50.644;17.984;2023-09-19T02:05:33;98945.40;;;18.70
69590;BMP180;56792;50.644;17.984;2023-09-19T02:08:02;98953.20;;;18.76
69590;BMP180;56792;50.644;17.984;2023-09-19T02:10:30;98948.00;;;18.80
69590;BMP180;56792;50.644;17.984;2023-09-19T02:13:00;98945.80;;;18.80
69590;BMP180;56792;50.644;17.984;2023-09-19T02:15:28;98948.40;;;18.80
69590;BMP180;56792;50.644;17.984;2023-09-19T02:18:00;98947.60;;;18.86
69590;BMP180;56792;50.644;17.984;2023-09-19T02:20:30;98946.60;;;18.90
69590;BMP180;56792;50.644;17.984;2023-09-19T02:23:00;98945.20;;;18.90
69590;BMP180;56792;50.644;17.984;2023-09-19T02:25:30;98950.20;;;18.90
69590;BMP180;56792;50.644;17.984;2023-09-19T02:27:59;98956.40;;;18.90
69590;BMP180;56792;50.644;17.984;2023-09-19T02:30:31;98956.40;;;18.92
69590;BMP180;56792;50.644;17.984;2023-09-19T02:33:00;98958.40;;;18.92
69590;BMP180;56792;50.644;17.984;2023-09-19T02:35:30;98960.00;;;18.98
69590;BMP180;56792;50.644;17.984;2023-09-19T02:38:04;98966.00;;;19.00
69590;BMP180;56792;50.644;17.984;2023-09-19T02:40:34;98964.80;;;19.00
69590;BMP180;56792;50.644;17.984;2023-09-19T02:43:05;98960.80;;;19.00
69590;BMP180;56792;50.644;17.984;2023-09-19T02:45:35;98962.40;;;19.00
69590;BMP180;56792;50.644;17.984;2023-09-19T02:48:05;98964.80;;;19.00
69590;BMP180;56792;50.644;17.984;2023-09-19T02:50:36;98963.40;;;19.00
69590;BMP180;56792;50.644;17.984;2023-09-19T02:53:06;98964.40;;;19.00
69590;BMP180;56792;50.644;17.984;2023-09-19T02:55:35;98968.40;;;19.00
69590;BMP180;56792;50.644;17.984;2023-09-19T02:58:08;98970.80;;;19.00
69590;BMP180;56792;50.644;17.984;2023-09-19T03:00:39;98975.20;;;19.00
69590;BMP180;56792;50.644;17.984;2023-09-19T03:03:10;98974.80;;;19.00
69590;BMP180;56792;50.644;17.984;2023-09-19T03:05:39;98973.80;;;19.00
69590;BMP180;56792;50.644;17.984;2023-09-19T03:08:08;98973.80;;;19.00
69590;BMP180;56792;50.644;17.984;2023-09-19T03:10:37;98968.00;;;19.00
69590;BMP180;56792;50.644;17.984;2023-09-19T03:13:06;98967.40;;;18.94
69590;BMP180;56792;50.644;17.984;2023-09-19T03:15:37;98965.20;;;19.00
69590;BMP180;56792;50.644;17.984;2023-09-19T03:18:09;98965.40;;;19.00
69590;BMP180;56792;50.644;17.984;2023-09-19T03:20:37;98963.40;;;19.00
69590;BMP180;56792;50.644;17.984;2023-09-19T03:23:07;98962.00;;;18.96
69590;BMP180;56792;50.644;17.984;2023-09-19T03:25:37;98960.20;;;18.92
69590;BMP180;56792;50.644;17.984;2023-09-19T03:28:06;98963.40;;;18.90
69590;BMP180;56792;50.644;17.984;2023-09-19T03:30:36;98961.20;;;18.90
69590;BMP180;56792;50.644;17.984;2023-09-19T03:33:06;98965.40;;;18.90
69590;BMP180;56792;50.644;17.984;2023-09-19T03:35:35;98965.40;;;18.90
69590;BMP180;56792;50.644;17.984;2023-09-19T03:38:05;98960.00;;;18.90
69590;BMP180;56792;50.644;17.984;2023-09-19T03:40:33;98962.40;;;18.90
69590;BMP180;56792;50.644;17.984;2023-09-19T03:43:05;98965.00;;;18.90
69590;BMP180;56792;50.644;17.984;2023-09-19T03:45:35;98963.60;;;18.90
69590;BMP180;56792;50.644;17.984;2023-09-19T03:48:08;98961.80;;;18.90
69590;BMP180;56792;50.644;17.984;2023-09-19T03:50:37;98959.80;;;18.90
69590;BMP180;56792;50.644;17.984;2023-09-19T03:53:06;98957.20;;;18.90
69590;BMP180;56792;50.644;17.984;2023-09-19T03:55:35;98955.60;;;18.90
69590;BMP180;56792;50.644;17.984;2023-09-19T03:58:04;98953.40;;;18.90
69590;BMP180;56792;50.644;17.984;2023-09-19T04:00:32;98956.00;;;18.90
69590;BMP180;56792;50.644;17.984;2023-09-19T04:03:02;98959.00;;;18.90
69590;BMP180;56792;50.644;17.984;2023-09-19T04:05:33;98966.40;;;18.90
69590;BMP180;56792;50.644;17.984;2023-09-19T04:08:02;98965.20;;;18.90
69590;BMP180;56792;50.644;17.984;2023-09-19T04:10:30;98966.00;;;18.90
69590;BMP180;56792;50.644;17.984;2023-09-19T04:12:59;98965.60;;;18.90
69590;BMP180;56792;50.644;17.984;2023-09-19T04:15:27;98965.60;;;18.86
69590;BMP180;56792;50.644;17.984;2023-09-19T04:17:56;98972.20;;;18.80
69590;BMP180;56792;50.644;17.984;2023-09-19T04:20:24;98976.00;;;18.80
69590;BMP180;56792;50.644;17.984;2023-09-19T04:22:53;98976.80;;;18.80
69590;BMP180;56792;50.644;17.984;2023-09-19T04:25:22;98983.80;;;18.80
69590;BMP180;56792;50.644;17.984;2023-09-19T04:27:50;98979.80;;;18.80
69590;BMP180;56792;50.644;17.984;2023-09-19T04:30:19;98977.80;;;18.80
69590;BMP180;56792;50.644;17.984;2023-09-19T04:32:48;98979.20;;;18.80
69590;BMP180;56792;50.644;17.984;2023-09-19T04:35:18;98984.60;;;18.80
69590;BMP180;56792;50.644;17.984;2023-09-19T04:37:47;98986.20;;;18.70
69590;BMP180;56792;50.644;17.984;2023-09-19T04:40:16;98987.20;;;18.70
69590;BMP180;56792;50.644;17.984;2023-09-19T04:42:45;98982.40;;;18.78
69590;BMP180;56792;50.644;17.984;2023-09-19T04:45:21;98980.60;;;18.80
69590;BMP180;56792;50.644;17.984;2023-09-19T04:47:49;98976.80;;;18.80
69590;BMP180;56792;50.644;17.984;2023-09-19T04:50:18;98977.00;;;18.80
69590;BMP180;56792;50.644;17.984;2023-09-19T04:52:49;98986.00;;;18.80
69590;BMP180;56792;50.644;17.984;2023-09-19T04:55:19;98987.80;;;18.80
69590;BMP180;56792;50.644;17.984;2023-09-19T04:57:48;98984.60;;;18.80
69590;BMP180;56792;50.644;17.984;2023-09-19T05:00:18;98983.60;;;18.80
69590;BMP180;56792;50.644;17.984;2023-09-19T05:02:52;98984.40;;;18.80
69590;BMP180;56792;50.644;17.984;2023-09-19T05:05:20;98985.80;;;18.80
69590;BMP180;56792;50.644;17.984;2023-09-19T05:07:50;98987.20;;;18.80
69590;BMP180;56792;50.644;17.984;2023-09-19T05:10:22;98988.80;;;18.80
69590;BMP180;56792;50.644;17.984;2023-09-19T05:12:53;98990.20;;;18.80
69590;BMP180;56792;50.644;17.984;2023-09-19T05:15:22;98989.20;;;18.80
69590;BMP180;56792;50.644;17.984;2023-09-19T05:17:52;98987.00;;;18.80
69590;BMP180;56792;50.644;17.984;2023-09-19T05:20:22;98991.00;;;18.80
69590;BMP180;56792;50.644;17.984;2023-09-19T05:23:02;98995.00;;;18.80
69590;BMP180;56792;50.644;17.984;2023-09-19T05:25:32;98995.40;;;18.80
69590;BMP180;56792;50.644;17.984;2023-09-19T05:28:00;98997.40;;;18.80
69590;BMP180;56792;50.644;17.984;2023-09-19T05:30:31;98997.40;;;18.80
69590;BMP180;56792;50.644;17.984;2023-09-19T05:33:00;98997.60;;;18.80
69590;BMP180;56792;50.644;17.984;2023-09-19T05:35:28;98998.40;;;18.80
69590;BMP180;56792;50.644;17.984;2023-09-19T05:37:56;98999.20;;;18.80
69590;BMP180;56792;50.644;17.984;2023-09-19T05:40:26;99005.40;;;18.80
69590;BMP180;56792;50.644;17.984;2023-09-19T05:42:55;99003.60;;;18.80
69590;BMP180;56792;50.644;17.984;2023-09-19T05:45:23;99005.20;;;18.80
69590;BMP180;56792;50.644;17.984;2023-09-19T05:47:53;99006.60;;;18.88
69590;BMP180;56792;50.644;17.984;2023-09-19T05:50:23;99007.20;;;18.90
69590;BMP180;56792;50.644;17.984;2023-09-19T05:52:55;99009.00;;;18.90
69590;BMP180;56792;50.644;17.984;2023-09-19T05:55:24;99013.20;;;18.90
69590;BMP180;56792;50.644;17.984;2023-09-19T05:57:53;99016.60;;;18.90
69590;BMP180;56792;50.644;17.984;2023-09-19T06:00:22;99017.00;;;18.90
69590;BMP180;56792;50.644;17.984;2023-09-19T06:02:53;99024.60;;;18.90
69590;BMP180;56792;50.644;17.984;2023-09-19T06:05:22;99029.60;;;18.90
69590;BMP180;56792;50.644;17.984;2023-09-19T06:07:51;99033.60;;;18.90
69590;BMP180;56792;50.644;17.984;2023-09-19T06:10:20;99042.20;;;18.90
69590;BMP180;56792;50.644;17.984;2023-09-19T06:12:48;99051.40;;;18.90
69590;BMP180;56792;50.644;17.984;2023-09-19T06:15:17;99059.40;;;18.90
69590;BMP180;56792;50.644;17.984;2023-09-19T06:17:49;99057.80;;;18.94
69590;BMP180;56792;50.644;17.984;2023-09-19T06:20:18;99064.20;;;19.00
69590;BMP180;56792;50.644;17.984;2023-09-19T06:22:47;99070.00;;;19.00
69590;BMP180;56792;50.644;17.984;2023-09-19T06:25:17;99075.60;;;19.10
69590;BMP180;56792;50.644;17.984;2023-09-19T06:27:47;99080.40;;;19.20
69590;BMP180;56792;50.644;17.984;2023-09-19T06:30:16;99082.00;;;19.20
69590;BMP180;56792;50.644;17.984;2023-09-19T06:32:45;99083.00;;;19.20
69590;BMP180;56792;50.644;17.984;2023-09-19T06:35:15;99087.00;;;19.24
69590;BMP180;56792;50.644;17.984;2023-09-19T06:37:44;99091.00;;;19.30
69590;BMP180;56792;50.644;17.984;2023-09-19T06:40:14;99090.80;;;19.40
69590;BMP180;56792;50.644;17.984;2023-09-19T06:42:44;99092.80;;;19.40
69590;BMP180;56792;50.644;17.984;2023-09-19T06:45:13;99101.60;;;19.50
69590;BMP180;56792;50.644;17.984;2023-09-19T06:47:45;99102.40;;;19.50
69590;BMP180;56792;50.644;17.984;2023-09-19T06:50:17;99115.00;;;19.56
69590;BMP180;56792;50.644;17.984;2023-09-19T06:52:48;99116.00;;;19.60
69590;BMP180;56792;50.644;17.984;2023-09-19T06:55:19;99120.60;;;19.66
69590;BMP180;56792;50.644;17.984;2023-09-19T06:57:47;99121.60;;;19.70
69590;BMP180;56792;50.644;17.984;2023-09-19T07:00:17;99118.80;;;19.80
69590;BMP180;56792;50.644;17.984;2023-09-19T07:02:55;99124.40;;;19.82
69590;BMP180;56792;50.644;17.984;2023-09-19T07:05:24;99130.20;;;19.92
69590;BMP180;56792;50.644;17.984;2023-09-19T07:07:53;99126.60;;;20.00
69590;BMP180;56792;50.644;17.984;2023-09-19T07:10:22;99128.80;;;20.10
69590;BMP180;56792;50.644;17.984;2023-09-19T07:12:57;99127.80;;;20.20
69590;BMP180;56792;50.644;17.984;2023-09-19T07:15:26;99128.40;;;20.30
69590;BMP180;56792;50.644;17.984;2023-09-19T07:17:55;99131.60;;;20.30
69590;BMP180;56792;50.644;17.984;2023-09-19T07:20:25;99134.80;;;20.40
69590;BMP180;56792;50.644;17.984;2023-09-19T07:22:54;99141.40;;;20.40
69590;BMP180;56792;50.644;17.984;2023-09-19T07:25:23;99142.40;;;20.48
69590;BMP180;56792;50.644;17.984;2023-09-19T07:27:51;99144.40;;;20.48
69590;BMP180;56792;50.644;17.984;2023-09-19T07:30:20;99146.00;;;20.40
69590;BMP180;56792;50.644;17.984;2023-09-19T07:32:48;99148.00;;;20.40
69590;BMP180;56792;50.644;17.984;2023-09-19T07:35:17;99152.00;;;20.40
69590;BMP180;56792;50.644;17.984;2023-09-19T07:37:47;99156.00;;;20.50
69590;BMP180;56792;50.644;17.984;2023-09-19T07:40:17;99164.40;;;20.50
69590;BMP180;56792;50.644;17.984;2023-09-19T07:42:46;99159.80;;;20.50
69590;BMP180;56792;50.644;17.984;2023-09-19T07:45:15;99163.00;;;20.56
69590;BMP180;56792;50.644;17.984;2023-09-19T07:47:46;99169.80;;;20.60
69590;BMP180;56792;50.644;17.984;2023-09-19T07:50:15;99169.80;;;20.60
69590;BMP180;56792;50.644;17.984;2023-09-19T07:52:44;99174.20;;;20.60
69590;BMP180;56792;50.644;17.984;2023-09-19T07:55:12;99176.40;;;20.60
69590;BMP180;56792;50.644;17.984;2023-09-19T07:57:45;99177.00;;;20.60
69590;BMP180;56792;50.644;17.984;2023-09-19T08:00:15;99175.40;;;20.60
69590;BMP180;56792;50.644;17.984;2023-09-19T08:02:44;99178.00;;;20.60
69590;BMP180;56792;50.644;17.984;2023-09-19T08:05:14;99180.60;;;20.60
69590;BMP180;56792;50.644;17.984;2023-09-19T08:07:45;99180.20;;;20.60
69590;BMP180;56792;50.644;17.984;2023-09-19T08:10:16;99185.40;;;20.54
69590;BMP180;56792;50.644;17.984;2023-09-19T08:12:48;99184.60;;;20.50
69590;BMP180;56792;50.644;17.984;2023-09-19T08:15:19;99191.20;;;20.44
69590;BMP180;56792;50.644;17.984;2023-09-19T08:17:48;99194.80;;;20.40
69590;BMP180;56792;50.644;17.984;2023-09-19T08:20:17;99196.60;;;20.38
69590;BMP180;56792;50.644;17.984;2023-09-19T08:22:50;99198.60;;;20.30
69590;BMP180;56792;50.644;17.984;2023-09-19T08:25:20;99199.40;;;20.30
69590;BMP180;56792;50.644;17.984;2023-09-19T08:27:50;99198.60;;;20.20
69590;BMP180;56792;50.644;17.984;2023-09-19T08:30:20;99196.00;;;20.20
69590;BMP180;56792;50.644;17.984;2023-09-19T08:32:51;99195.60;;;20.20
69590;BMP180;56792;50.644;17.984;2023-09-19T08:35:20;99197.80;;;20.20
69590;BMP180;56792;50.644;17.984;2023-09-19T08:37:48;99194.40;;;20.18
69590;BMP180;56792;50.644;17.984;2023-09-19T08:40:17;99201.40;;;20.10
69590;BMP180;56792;50.644;17.984;2023-09-19T08:42:52;99201.80;;;20.08
69590;BMP180;56792;50.644;17.984;2023-09-19T08:45:22;99203.60;;;20.00
69590;BMP180;56792;50.644;17.984;2023-09-19T08:48:16;99211.20;;;19.96
69590;BMP180;56792;50.644;17.984;2023-09-19T08:50:51;99215.20;;;19.90
69590;BMP180;56792;50.644;17.984;2023-09-19T08:53:27;99215.20;;;19.90
69590;BMP180;56792;50.644;17.984;2023-09-19T08:56:01;99219.80;;;19.90
69590;BMP180;56792;50.644;17.984;2023-09-19T08:58:42;99227.40;;;19.80
69590;BMP180;56792;50.644;17.984;2023-09-19T09:01:13;99231.20;;;19.80
69590;BMP180;56792;50.644;17.984;2023-09-19T09:03:44;99233.80;;;19.70
69590;BMP180;56792;50.644;17.984;2023-09-19T09:06:17;99236.80;;;19.70
69590;BMP180;56792;50.644;17.984;2023-09-19T09:08:46;99235.20;;;19.64
69590;BMP180;56792;50.644;17.984;2023-09-19T09:11:16;99235.20;;;19.60
69590;BMP180;56792;50.644;17.984;2023-09-19T09:13:45;99236.80;;;19.70
69590;BMP180;56792;50.644;17.984;2023-09-19T09:16:14;99241.80;;;19.70
69590;BMP180;56792;50.644;17.984;2023-09-19T09:18:45;99241.40;;;19.70
69590;BMP180;56792;50.644;17.984;2023-09-19T09:21:14;99240.60;;;19.78
69590;BMP180;56792;50.644;17.984;2023-09-19T09:23:43;99249.20;;;19.80
69590;BMP180;56792;50.644;17.984;2023-09-19T09:26:12;99248.40;;;19.90
69590;BMP180;56792;50.644;17.984;2023-09-19T09:28:47;99255.40;;;19.90
69590;BMP180;56792;50.644;17.984;2023-09-19T09:31:25;99250.60;;;19.90
69590;BMP180;56792;50.644;17.984;2023-09-19T09:33:57;99259.00;;;19.90
69590;BMP180;56792;50.644;17.984;2023-09-19T09:36:40;99262.60;;;20.00
69590;BMP180;56792;50.644;17.984;2023-09-19T09:39:09;99261.20;;;20.00
69590;BMP180;56792;50.644;17.984;2023-09-19T09:41:45;99260.60;;;20.00
69590;BMP180;56792;50.644;17.984;2023-09-19T09:44:16;99264.60;;;20.00
69590;BMP180;56792;50.644;17.984;2023-09-19T09:46:46;99265.20;;;20.00
69590;BMP180;56792;50.644;17.984;2023-09-19T09:49:28;99277.40;;;20.10
69590;BMP180;56792;50.644;17.984;2023-09-19T09:52:04;99276.60;;;20.10
69590;BMP180;56792;50.644;17.984;2023-09-19T09:54:36;99280.40;;;20.10
69590;BMP180;56792;50.644;17.984;2023-09-19T09:57:07;99283.00;;;20.20
69590;BMP180;56792;50.644;17.984;2023-09-19T09:59:50;99286.60;;;20.18
69590;BMP180;56792;50.644;17.984;2023-09-19T10:02:27;99288.40;;;20.20
69590;BMP180;56792;50.644;17.984;2023-09-19T10:04:57;99292.80;;;20.30
69590;BMP180;56792;50.644;17.984;2023-09-19T10:07:41;99293.20;;;20.30
69590;BMP180;56792;50.644;17.984;2023-09-19T10:10:31;99291.20;;;20.50
69590;BMP180;56792;50.644;17.984;2023-09-19T10:13:13;99294.60;;;20.70
69590;BMP180;56792;50.644;17.984;2023-09-19T10:15:44;99292.40;;;20.90
69590;BMP180;56792;50.644;17.984;2023-09-19T10:18:21;99301.20;;;21.00
69590;BMP180;56792;50.644;17.984;2023-09-19T10:20:51;99304.00;;;21.00
69590;BMP180;56792;50.644;17.984;2023-09-19T10:23:21;99301.80;;;21.00
69590;BMP180;56792;50.644;17.984;2023-09-19T10:25:51;99303.20;;;21.00
69590;BMP180;56792;50.644;17.984;2023-09-19T10:28:21;99305.60;;;21.00
69590;BMP180;56792;50.644;17.984;2023-09-19T10:30:51;99313.40;;;20.90
69590;BMP180;56792;50.644;17.984;2023-09-19T10:33:22;99309.20;;;20.90
69590;BMP180;56792;50.644;17.984;2023-09-19T10:35:54;99310.60;;;20.90
69590;BMP180;56792;50.644;17.984;2023-09-19T10:38:26;99312.20;;;20.90
69590;BMP180;56792;50.644;17.984;2023-09-19T10:40:57;99316.20;;;20.90
69590;BMP180;56792;50.644;17.984;2023-09-19T10:43:32;99319.20;;;20.90
69590;BMP180;56792;50.644;17.984;2023-09-19T10:46:07;99322.00;;;20.90
69590;BMP180;56792;50.644;17.984;2023-09-19T10:48:38;99316.60;;;20.90
69590;BMP180;56792;50.644;17.984;2023-09-19T10:51:10;99313.80;;;21.04
69590;BMP180;56792;50.644;17.984;2023-09-19T10:53:52;99317.00;;;21.30
69590;BMP180;56792;50.644;17.984;2023-09-19T10:56:26;99315.00;;;21.90
69590;BMP180;56792;50.644;17.984;2023-09-19T10:59:10;99315.20;;;22.40
69590;BMP180;56792;50.644;17.984;2023-09-19T11:01:45;99315.20;;;23.16
69590;BMP180;56792;50.644;17.984;2023-09-19T11:04:30;99310.40;;;24.06
69590;BMP180;56792;50.644;17.984;2023-09-19T11:07:05;99310.80;;;24.70
69590;BMP180;56792;50.644;17.984;2023-09-19T11:09:50;99315.20;;;25.32
69590;BMP180;56792;50.644;17.984;2023-09-19T11:12:51;99311.00;;;26.52
69590;BMP180;56792;50.644;17.984;2023-09-19T11:18:55;99314.60;;;30.76
69590;BMP180;56792;50.644;17.984;2023-09-19T11:21:52;99314.80;;;32.58
69590;BMP180;56792;50.644;17.984;2023-09-19T11:24:31;99318.20;;;33.50
69590;BMP180;56792;50.644;17.984;2023-09-19T11:27:15;99317.60;;;34.86
69590;BMP180;56792;50.644;17.984;2023-09-19T11:29:45;99320.80;;;35.72
69590;BMP180;56792;50.644;17.984;2023-09-19T11:32:15;99323.20;;;34.78
69590;BMP180;56792;50.644;17.984;2023-09-19T11:34:50;99325.40;;;35.04
69590;BMP180;56792;50.644;17.984;2023-09-19T11:38:00;99326.20;;;34.96
69590;BMP180;56792;50.644;17.984;2023-09-19T11:40:34;99326.80;;;32.98
69590;BMP180;56792;50.644;17.984;2023-09-19T11:43:32;99327.60;;;31.74
69590;BMP180;56792;50.644;17.984;2023-09-19T11:46:09;99326.00;;;30.64
69590;BMP180;56792;50.644;17.984;2023-09-19T11:48:40;99325.60;;;31.58
69590;BMP180;56792;50.644;17.984;2023-09-19T11:51:18;99332.40;;;32.12
69590;BMP180;56792;50.644;17.984;2023-09-19T11:54:03;99333.20;;;32.20
69590;BMP180;56792;50.644;17.984;2023-09-19T11:56:32;99328.00;;;32.20
69590;BMP180;56792;50.644;17.984;2023-09-19T11:59:09;99329.00;;;34.18
69590;BMP180;56792;50.644;17.984;2023-09-19T12:01:44;99330.20;;;35.98
69590;BMP180;56792;50.644;17.984;2023-09-19T12:04:22;99335.40;;;37.10
69590;BMP180;56792;50.644;17.984;2023-09-19T12:07:01;99346.00;;;36.46
69590;BMP180;56792;50.644;17.984;2023-09-19T12:09:30;99342.80;;;35.80
69590;BMP180;56792;50.644;17.984;2023-09-19T12:11:58;99343.60;;;35.50
69590;BMP180;56792;50.644;17.984;2023-09-19T12:14:27;99349.00;;;35.60
69590;BMP180;56792;50.644;17.984;2023-09-19T12:16:57;99348.60;;;35.14
69590;BMP180;56792;50.644;17.984;2023-09-19T12:19:28;99348.60;;;35.34
69590;BMP180;56792;50.644;17.984;2023-09-19T12:21:58;99352.80;;;34.90
69590;BMP180;56792;50.644;17.984;2023-09-19T12:24:27;99351.60;;;33.80
69590;BMP180;56792;50.644;17.984;2023-09-19T12:27:03;99354.20;;;32.62
69590;BMP180;56792;50.644;17.984;2023-09-19T12:29:44;99353.80;;;31.62
69590;BMP180;56792;50.644;17.984;2023-09-19T12:32:13;99360.20;;;31.18
69590;BMP180;56792;50.644;17.984;2023-09-19T12:34:52;99366.40;;;30.72
69590;BMP180;56792;50.644;17.984;2023-09-19T12:37:22;99369.80;;;29.88
69590;BMP180;56792;50.644;17.984;2023-09-19T12:39:52;99365.60;;;29.24
69590;BMP180;56792;50.644;17.984;2023-09-19T12:42:22;99368.20;;;28.54
69590;BMP180;56792;50.644;17.984;2023-09-19T12:44:52;99372.60;;;27.94
69590;BMP180;56792;50.644;17.984;2023-09-19T12:47:25;99377.20;;;27.28
69590;BMP180;56792;50.644;17.984;2023-09-19T12:50:11;99379.20;;;26.60
69590;BMP180;56792;50.644;17.984;2023-09-19T12:52:46;99378.00;;;26.14
69590;BMP180;56792;50.644;17.984;2023-09-19T12:55:25;99383.80;;;25.80
69590;BMP180;56792;50.644;17.984;2023-09-19T12:58:08;99386.20;;;25.42
69590;BMP180;56792;50.644;17.984;2023-09-19T13:00:39;99392.00;;;25.10
69590;BMP180;56792;50.644;17.984;2023-09-19T13:03:14;99393.40;;;24.80
69590;BMP180;56792;50.644;17.984;2023-09-19T13:06:04;99389.60;;;24.50
69590;BMP180;56792;50.644;17.984;2023-09-19T13:08:34;99392.80;;;24.18
69590;BMP180;56792;50.644;17.984;2023-09-19T13:11:11;99396.00;;;23.84
69590;BMP180;56792;50.644;17.984;2023-09-19T13:13:42;99395.20;;;23.60
69590;BMP180;56792;50.644;17.984;2023-09-19T13:16:12;99396.60;;;23.40
69590;BMP180;56792;50.644;17.984;2023-09-19T13:18:47;99401.40;;;23.30
69590;BMP180;56792;50.644;17.984;2023-09-19T13:21:29;99399.80;;;23.12
69590;BMP180;56792;50.644;17.984;2023-09-19T13:24:21;99404.00;;;23.00
69590;BMP180;56792;50.644;17.984;2023-09-19T13:26:53;99401.00;;;22.78
69590;BMP180;56792;50.644;17.984;2023-09-19T13:29:22;99405.40;;;22.42
69590;BMP180;56792;50.644;17.984;2023-09-19T13:31:52;99403.60;;;22.10
69590;BMP180;56792;50.644;17.984;2023-09-19T13:34:21;99404.20;;;21.90
69590;BMP180;56792;50.644;17.984;2023-09-19T13:36:49;99397.60;;;21.70
69590;BMP180;56792;50.644;17.984;2023-09-19T13:39:18;99398.80;;;21.90
69590;BMP180;56792;50.644;17.984;2023-09-19T13:41:47;99397.00;;;22.10
69590;BMP180;56792;50.644;17.984;2023-09-19T13:44:16;99392.20;;;22.20
69590;BMP180;56792;50.644;17.984;2023-09-19T13:46:45;99390.40;;;22.30
69590;BMP180;56792;50.644;17.984;2023-09-19T13:49:14;99392.40;;;22.20
69590;BMP180;56792;50.644;17.984;2023-09-19T13:51:42;99386.20;;;22.00
69590;BMP180;56792;50.644;17.984;2023-09-19T13:54:11;99378.80;;;22.34
69590;BMP180;56792;50.644;17.984;2023-09-19T13:56:40;99378.00;;;23.00
69590;BMP180;56792;50.644;17.984;2023-09-19T13:59:08;99372.00;;;23.00
69590;BMP180;56792;50.644;17.984;2023-09-19T14:01:36;99371.20;;;22.92
69590;BMP180;56792;50.644;17.984;2023-09-19T14:04:06;99366.00;;;22.90
69590;BMP180;56792;50.644;17.984;2023-09-19T14:06:34;99368.60;;;22.90
69590;BMP180;56792;50.644;17.984;2023-09-19T14:09:03;99366.80;;;23.00
69590;BMP180;56792;50.644;17.984;2023-09-19T14:11:31;99362.00;;;23.10
69590;BMP180;56792;50.644;17.984;2023-09-19T14:14:00;99365.80;;;23.30
69590;BMP180;56792;50.644;17.984;2023-09-19T14:16:28;99353.40;;;23.40
69590;BMP180;56792;50.644;17.984;2023-09-19T14:18:58;99352.00;;;23.50
69590;BMP180;56792;50.644;17.984;2023-09-19T14:21:27;99343.80;;;23.60
69590;BMP180;56792;50.644;17.984;2023-09-19T14:23:55;99350.00;;;23.70
69590;BMP180;56792;50.644;17.984;2023-09-19T14:26:24;99347.80;;;23.90
69590;BMP180;56792;50.644;17.984;2023-09-19T14:28:52;99341.40;;;23.90